sensor_id;sensor_type;location;lat;lon;timestamp;temperature;humidity
22680;DHT22;11507;44.858;10.374;2023-05-08T00:02:17;18.50;99.90
22680;DHT22;11507;44.858;10.374;2023-05-08T00:04:43;18.40;99.90
22680;DHT22;11507;44.858;10.374;2023-05-08T00:07:09;18.40;99.90
22680;DHT22;11507;44.858;10.374;2023-05-08T00:09:36;18.40;99.90
22680;DHT22;11507;44.858;10.374;2023-05-08T00:12:02;18.30;99.90
22680;DHT22;11507;44.858;10.374;2023-05-08T00:14:28;18.30;99.90
22680;DHT22;11507;44.858;10.374;2023-05-08T00:16:54;18.20;99.90
22680;DHT22;11507;44.858;10.374;2023-05-08T00:19:20;18.20;99.90
22680;DHT22;11507;44.858;10.374;2023-05-08T00:21:46;18.20;99.90
22680;DHT22;11507;44.858;10.374;2023-05-08T00:24:12;18.10;99.90
22680;DHT22;11507;44.858;10.374;2023-05-08T00:26:39;18.10;99.90
22680;DHT22;11507;44.858;10.374;2023-05-08T00:29:06;18.10;99.90
22680;DHT22;11507;44.858;10.374;2023-05-08T00:31:32;18.00;99.90
22680;DHT22;11507;44.858;10.374;2023-05-08T00:33:59;18.00;99.90
22680;DHT22;11507;44.858;10.374;2023-05-08T00:36:25;18.00;99.90
22680;DHT22;11507;44.858;10.374;2023-05-08T00:38:52;17.90;99.90
22680;DHT22;11507;44.858;10.374;2023-05-08T00:41:18;17.80;99.90
22680;DHT22;11507;44.858;10.374;2023-05-08T00:43:44;17.70;99.90
22680;DHT22;11507;44.858;10.374;2023-05-08T00:46:10;17.60;99.90
22680;DHT22;11507;44.858;10.374;2023-05-08T00:48:38;17.50;99.90
22680;DHT22;11507;44.858;10.374;2023-05-08T00:51:05;17.40;99.90
22680;DHT22;11507;44.858;10.374;2023-05-08T00:53:36;17.30;99.90
22680;DHT22;11507;44.858;10.374;2023-05-08T00:56:05;17.20;99.90
22680;DHT22;11507;44.858;10.374;2023-05-08T00:58:32;17.10;99.90
22680;DHT22;11507;44.858;10.374;2023-05-08T01:00:59;17.00;99.90
22680;DHT22;11507;44.858;10.374;2023-05-08T01:03:25;16.90;99.90
22680;DHT22;11507;44.858;10.374;2023-05-08T01:05:53;16.80;99.90
22680;DHT22;11507;44.858;10.374;2023-05-08T01:08:19;16.70;99.90
22680;DHT22;11507;44.858;10.374;2023-05-08T01:11:10;16.70;99.90
22680;DHT22;11507;44.858;10.374;2023-05-08T01:14:10;16.60;99.90
22680;DHT22;11507;44.858;10.374;2023-05-08T01:21:55;16.40;99.90
22680;DHT22;11507;44.858;10.374;2023-05-08T01:24:44;16.30;99.90
22680;DHT22;11507;44.858;10.374;2023-05-08T01:27:29;16.30;99.90
22680;DHT22;11507;44.858;10.374;2023-05-08T01:30:38;16.20;99.90
22680;DHT22;11507;44.858;10.374;2023-05-08T01:33:16;16.20;99.90
22680;DHT22;11507;44.858;10.374;2023-05-08T01:35:57;16.20;99.90
22680;DHT22;11507;44.858;10.374;2023-05-08T01:38:38;16.20;99.90
22680;DHT22;11507;44.858;10.374;2023-05-08T01:41:13;16.20;99.90
22680;DHT22;11507;44.858;10.374;2023-05-08T01:44:23;16.20;99.90
22680;DHT22;11507;44.858;10.374;2023-05-08T01:46:49;16.10;99.90
22680;DHT22;11507;44.858;10.374;2023-05-08T01:51:56;16.00;99.90
22680;DHT22;11507;44.858;10.374;2023-05-08T01:54:27;15.90;99.90
22680;DHT22;11507;44.858;10.374;2023-05-08T01:56:56;15.90;99.90
22680;DHT22;11507;44.858;10.374;2023-05-08T01:59:25;15.80;99.90
22680;DHT22;11507;44.858;10.374;2023-05-08T02:01:58;15.80;99.90
22680;DHT22;11507;44.858;10.374;2023-05-08T02:04:27;15.70;99.90
22680;DHT22;11507;44.858;10.374;2023-05-08T02:06:56;15.60;99.90
22680;DHT22;11507;44.858;10.374;2023-05-08T02:09:26;15.50;99.90
22680;DHT22;11507;44.858;10.374;2023-05-08T02:11:54;15.40;99.90
22680;DHT22;11507;44.858;10.374;2023-05-08T02:14:21;15.40;99.90
22680;DHT22;11507;44.858;10.374;2023-05-08T02:16:50;15.30;99.90
22680;DHT22;11507;44.858;10.374;2023-05-08T02:19:18;15.20;99.90
22680;DHT22;11507;44.858;10.374;2023-05-08T02:21:47;15.10;99.90
22680;DHT22;11507;44.858;10.374;2023-05-08T02:24:15;15.10;99.90
22680;DHT22;11507;44.858;10.374;2023-05-08T02:26:43;15.00;99.90
22680;DHT22;11507;44.858;10.374;2023-05-08T02:29:10;15.00;99.90
22680;DHT22;11507;44.858;10.374;2023-05-08T02:31:37;15.00;99.90
22680;DHT22;11507;44.858;10.374;2023-05-08T02:34:04;15.00;99.90
22680;DHT22;11507;44.858;10.374;2023-05-08T02:36:33;15.00;99.90
22680;DHT22;11507;44.858;10.374;2023-05-08T02:39:02;15.00;99.90
22680;DHT22;11507;44.858;10.374;2023-05-08T02:41:32;15.00;99.90
22680;DHT22;11507;44.858;10.374;2023-05-08T02:44:00;15.00;99.90
22680;DHT22;11507;44.858;10.374;2023-05-08T02:47:17;15.00;99.90
22680;DHT22;11507;44.858;10.374;2023-05-08T02:49:47;14.90;99.90
22680;DHT22;11507;44.858;10.374;2023-05-08T02:52:26;14.90;99.90
22680;DHT22;11507;44.858;10.374;2023-05-08T02:55:22;14.80;99.90
22680;DHT22;11507;44.858;10.374;2023-05-08T03:01:05;14.60;99.90
22680;DHT22;11507;44.858;10.374;2023-05-08T03:03:48;14.60;99.90
22680;DHT22;11507;44.858;10.374;2023-05-08T03:06:23;14.50;99.90
22680;DHT22;11507;44.858;10.374;2023-05-08T03:08:54;14.50;99.90
22680;DHT22;11507;44.858;10.374;2023-05-08T03:11:27;14.50;99.90
22680;DHT22;11507;44.858;10.374;2023-05-08T03:13:58;14.50;99.90
22680;DHT22;11507;44.858;10.374;2023-05-08T03:16:27;14.40;99.90
22680;DHT22;11507;44.858;10.374;2023-05-08T03:19:04;14.40;99.90
22680;DHT22;11507;44.858;10.374;2023-05-08T03:21:32;14.40;99.90
22680;DHT22;11507;44.858;10.374;2023-05-08T03:24:04;14.40;99.90
22680;DHT22;11507;44.858;10.374;2023-05-08T03:26:33;14.40;99.90
22680;DHT22;11507;44.858;10.374;2023-05-08T03:29:01;14.40;99.90
22680;DHT22;11507;44.858;10.374;2023-05-08T03:31:32;14.40;99.90
22680;DHT22;11507;44.858;10.374;2023-05-08T03:34:01;14.40;99.90
22680;DHT22;11507;44.858;10.374;2023-05-08T03:36:30;14.40;99.90
22680;DHT22;11507;44.858;10.374;2023-05-08T03:38:59;14.40;99.90
22680;DHT22;11507;44.858;10.374;2023-05-08T03:41:25;14.50;99.90
22680;DHT22;11507;44.858;10.374;2023-05-08T03:43:53;14.50;99.90
22680;DHT22;11507;44.858;10.374;2023-05-08T03:46:20;14.50;99.90
22680;DHT22;11507;44.858;10.374;2023-05-08T03:48:48;14.50;99.90
22680;DHT22;11507;44.858;10.374;2023-05-08T03:51:16;14.40;99.90
22680;DHT22;11507;44.858;10.374;2023-05-08T03:53:43;14.40;99.90
22680;DHT22;11507;44.858;10.374;2023-05-08T03:56:09;14.40;99.90
22680;DHT22;11507;44.858;10.374;2023-05-08T03:58:56;14.30;99.90
22680;DHT22;11507;44.858;10.374;2023-05-08T04:01:35;14.30;99.90
22680;DHT22;11507;44.858;10.374;2023-05-08T04:04:41;14.30;99.90
22680;DHT22;11507;44.858;10.374;2023-05-08T04:10:30;14.30;99.90
22680;DHT22;11507;44.858;10.374;2023-05-08T04:16:12;14.40;99.90
22680;DHT22;11507;44.858;10.374;2023-05-08T04:18:45;14.40;99.90
22680;DHT22;11507;44.858;10.374;2023-05-08T04:21:18;14.40;99.90
22680;DHT22;11507;44.858;10.374;2023-05-08T04:23:47;14.40;99.90
22680;DHT22;11507;44.858;10.374;2023-05-08T04:26:16;14.50;99.90
22680;DHT22;11507;44.858;10.374;2023-05-08T04:28:44;14.50;99.90
22680;DHT22;11507;44.858;10.374;2023-05-08T04:31:15;14.50;99.90
22680;DHT22;11507;44.858;10.374;2023-05-08T04:33:44;14.60;99.90
22680;DHT22;11507;44.858;10.374;2023-05-08T04:36:12;14.60;99.90
22680;DHT22;11507;44.858;10.374;2023-05-08T04:38:40;14.70;99.90
22680;DHT22;11507;44.858;10.374;2023-05-08T04:41:07;14.70;99.90
22680;DHT22;11507;44.858;10.374;2023-05-08T04:43:36;14.80;99.90
22680;DHT22;11507;44.858;10.374;2023-05-08T04:46:04;14.80;99.90
22680;DHT22;11507;44.858;10.374;2023-05-08T04:48:31;14.90;99.90
22680;DHT22;11507;44.858;10.374;2023-05-08T04:51:01;15.00;99.90
22680;DHT22;11507;44.858;10.374;2023-05-08T04:53:29;15.00;99.90
22680;DHT22;11507;44.858;10.374;2023-05-08T04:55:55;15.10;99.90
22680;DHT22;11507;44.858;10.374;2023-05-08T04:58:25;15.20;99.90
22680;DHT22;11507;44.858;10.374;2023-05-08T05:00:54;15.30;99.90
22680;DHT22;11507;44.858;10.374;2023-05-08T05:03:21;15.40;99.90
22680;DHT22;11507;44.858;10.374;2023-05-08T05:05:48;15.40;99.90
22680;DHT22;11507;44.858;10.374;2023-05-08T05:08:15;15.50;99.90
22680;DHT22;11507;44.858;10.374;2023-05-08T05:10:44;15.50;99.90
22680;DHT22;11507;44.858;10.374;2023-05-08T05:13:13;15.70;99.90
22680;DHT22;11507;44.858;10.374;2023-05-08T05:15:44;15.70;99.90
22680;DHT22;11507;44.858;10.374;2023-05-08T05:18:11;15.80;99.90
22680;DHT22;11507;44.858;10.374;2023-05-08T05:20:37;16.00;99.90
22680;DHT22;11507;44.858;10.374;2023-05-08T05:23:03;16.00;99.90
22680;DHT22;11507;44.858;10.374;2023-05-08T05:25:29;16.10;99.90
22680;DHT22;11507;44.858;10.374;2023-05-08T05:27:56;16.20;99.90
22680;DHT22;11507;44.858;10.374;2023-05-08T05:30:22;16.30;99.90
22680;DHT22;11507;44.858;10.374;2023-05-08T05:32:48;16.40;99.90
22680;DHT22;11507;44.858;10.374;2023-05-08T05:35:15;16.50;99.90
22680;DHT22;11507;44.858;10.374;2023-05-08T05:37:41;16.50;99.90
22680;DHT22;11507;44.858;10.374;2023-05-08T05:40:10;16.60;99.90
22680;DHT22;11507;44.858;10.374;2023-05-08T05:42:38;16.60;99.90
22680;DHT22;11507;44.858;10.374;2023-05-08T05:45:04;16.60;99.90
22680;DHT22;11507;44.858;10.374;2023-05-08T05:47:31;16.70;99.90
22680;DHT22;11507;44.858;10.374;2023-05-08T05:49:57;16.80;99.90
22680;DHT22;11507;44.858;10.374;2023-05-08T05:52:26;16.90;99.90
22680;DHT22;11507;44.858;10.374;2023-05-08T05:54:52;17.10;99.90
22680;DHT22;11507;44.858;10.374;2023-05-08T05:57:18;17.20;99.90
22680;DHT22;11507;44.858;10.374;2023-05-08T05:59:45;17.30;99.90
22680;DHT22;11507;44.858;10.374;2023-05-08T06:02:11;17.50;99.90
22680;DHT22;11507;44.858;10.374;2023-05-08T06:04:43;17.70;99.90
22680;DHT22;11507;44.858;10.374;2023-05-08T06:07:09;17.70;99.90
22680;DHT22;11507;44.858;10.374;2023-05-08T06:09:36;17.90;99.90
22680;DHT22;11507;44.858;10.374;2023-05-08T06:12:03;18.00;99.90
22680;DHT22;11507;44.858;10.374;2023-05-08T06:14:29;18.30;99.90
22680;DHT22;11507;44.858;10.374;2023-05-08T06:16:55;18.40;99.90
22680;DHT22;11507;44.858;10.374;2023-05-08T06:19:21;18.60;99.90
22680;DHT22;11507;44.858;10.374;2023-05-08T06:21:50;18.90;99.90
22680;DHT22;11507;44.858;10.374;2023-05-08T06:24:16;19.00;99.90
22680;DHT22;11507;44.858;10.374;2023-05-08T06:26:42;19.30;99.90
22680;DHT22;11507;44.858;10.374;2023-05-08T06:29:08;19.50;99.90
22680;DHT22;11507;44.858;10.374;2023-05-08T06:31:34;19.70;99.90
22680;DHT22;11507;44.858;10.374;2023-05-08T06:34:00;19.90;99.90
22680;DHT22;11507;44.858;10.374;2023-05-08T06:36:26;20.10;99.90
22680;DHT22;11507;44.858;10.374;2023-05-08T06:38:51;20.20;99.90
22680;DHT22;11507;44.858;10.374;2023-05-08T06:41:17;20.30;99.90
22680;DHT22;11507;44.858;10.374;2023-05-08T06:43:43;20.50;99.90
22680;DHT22;11507;44.858;10.374;2023-05-08T06:46:09;20.60;99.90
22680;DHT22;11507;44.858;10.374;2023-05-08T06:48:35;20.60;99.90
22680;DHT22;11507;44.858;10.374;2023-05-08T06:51:00;20.70;99.90
22680;DHT22;11507;44.858;10.374;2023-05-08T06:53:27;20.70;99.90
22680;DHT22;11507;44.858;10.374;2023-05-08T06:55:53;20.90;99.90
22680;DHT22;11507;44.858;10.374;2023-05-08T06:58:18;21.10;99.90
22680;DHT22;11507;44.858;10.374;2023-05-08T07:00:44;21.10;99.90
22680;DHT22;11507;44.858;10.374;2023-05-08T07:03:10;21.20;99.90
22680;DHT22;11507;44.858;10.374;2023-05-08T07:05:36;21.20;99.90
22680;DHT22;11507;44.858;10.374;2023-05-08T07:08:02;21.10;99.90
22680;DHT22;11507;44.858;10.374;2023-05-08T07:10:28;21.00;99.90
22680;DHT22;11507;44.858;10.374;2023-05-08T07:12:54;21.20;99.90
22680;DHT22;11507;44.858;10.374;2023-05-08T07:15:19;21.20;99.90
22680;DHT22;11507;44.858;10.374;2023-05-08T07:17:46;21.40;99.90
22680;DHT22;11507;44.858;10.374;2023-05-08T07:20:13;21.70;99.90
22680;DHT22;11507;44.858;10.374;2023-05-08T07:22:39;22.10;99.90
22680;DHT22;11507;44.858;10.374;2023-05-08T07:25:06;22.30;99.90
22680;DHT22;11507;44.858;10.374;2023-05-08T07:27:32;22.30;99.90
22680;DHT22;11507;44.858;10.374;2023-05-08T07:30:02;22.20;99.90
22680;DHT22;11507;44.858;10.374;2023-05-08T07:32:30;22.10;99.90
22680;DHT22;11507;44.858;10.374;2023-05-08T07:34:56;22.10;99.90
22680;DHT22;11507;44.858;10.374;2023-05-08T07:37:24;22.30;99.90
22680;DHT22;11507;44.858;10.374;2023-05-08T07:39:51;22.50;99.90
22680;DHT22;11507;44.858;10.374;2023-05-08T07:42:17;22.70;99.90
22680;DHT22;11507;44.858;10.374;2023-05-08T07:44:43;23.00;99.90
22680;DHT22;11507;44.858;10.374;2023-05-08T07:47:09;23.40;99.90
22680;DHT22;11507;44.858;10.374;2023-05-08T07:49:35;23.60;99.90
22680;DHT22;11507;44.858;10.374;2023-05-08T07:52:02;23.70;99.90
22680;DHT22;11507;44.858;10.374;2023-05-08T07:54:28;23.60;99.90
22680;DHT22;11507;44.858;10.374;2023-05-08T07:56:54;23.50;99.90
22680;DHT22;11507;44.858;10.374;2023-05-08T07:59:21;23.80;99.90
22680;DHT22;11507;44.858;10.374;2023-05-08T08:01:47;24.10;99.90
22680;DHT22;11507;44.858;10.374;2023-05-08T08:04:13;24.10;99.90
22680;DHT22;11507;44.858;10.374;2023-05-08T08:06:40;24.30;99.90
22680;DHT22;11507;44.858;10.374;2023-05-08T08:09:06;24.60;99.90
22680;DHT22;11507;44.858;10.374;2023-05-08T08:11:32;24.90;99.90
22680;DHT22;11507;44.858;10.374;2023-05-08T08:13:59;25.10;99.90
22680;DHT22;11507;44.858;10.374;2023-05-08T08:16:25;25.30;99.90
22680;DHT22;11507;44.858;10.374;2023-05-08T08:18:51;25.00;99.90
22680;DHT22;11507;44.858;10.374;2023-05-08T08:21:18;24.90;99.90
22680;DHT22;11507;44.858;10.374;2023-05-08T08:23:44;24.70;99.90
22680;DHT22;11507;44.858;10.374;2023-05-08T08:26:10;24.10;99.90
22680;DHT22;11507;44.858;10.374;2023-05-08T08:28:36;24.00;99.90
22680;DHT22;11507;44.858;10.374;2023-05-08T08:31:02;23.90;99.90
22680;DHT22;11507;44.858;10.374;2023-05-08T08:33:28;23.70;99.90
22680;DHT22;11507;44.858;10.374;2023-05-08T08:35:56;23.70;99.90
22680;DHT22;11507;44.858;10.374;2023-05-08T08:38:23;23.50;99.90
22680;DHT22;11507;44.858;10.374;2023-05-08T08:40:48;23.20;99.90
22680;DHT22;11507;44.858;10.374;2023-05-08T08:43:14;23.00;99.90
22680;DHT22;11507;44.858;10.374;2023-05-08T08:45:40;23.00;99.90
22680;DHT22;11507;44.858;10.374;2023-05-08T08:48:09;23.00;99.90
22680;DHT22;11507;44.858;10.374;2023-05-08T08:50:42;23.00;99.90
22680;DHT22;11507;44.858;10.374;2023-05-08T08:53:16;22.90;99.90
22680;DHT22;11507;44.858;10.374;2023-05-08T08:55:49;22.90;99.90
22680;DHT22;11507;44.858;10.374;2023-05-08T09:00:53;23.30;99.90
22680;DHT22;11507;44.858;10.374;2023-05-08T09:03:20;23.10;99.90
22680;DHT22;11507;44.858;10.374;2023-05-08T09:05:47;23.20;99.90
22680;DHT22;11507;44.858;10.374;2023-05-08T09:08:14;23.10;99.90
22680;DHT22;11507;44.858;10.374;2023-05-08T09:10:40;22.90;99.90
22680;DHT22;11507;44.858;10.374;2023-05-08T09:13:08;23.00;99.90
22680;DHT22;11507;44.858;10.374;2023-05-08T09:15:33;23.00;99.90
22680;DHT22;11507;44.858;10.374;2023-05-08T09:18:00;23.10;99.90
22680;DHT22;11507;44.858;10.374;2023-05-08T09:20:28;23.30;99.90
22680;DHT22;11507;44.858;10.374;2023-05-08T09:22:57;23.50;99.90
22680;DHT22;11507;44.858;10.374;2023-05-08T09:25:25;23.60;99.90
22680;DHT22;11507;44.858;10.374;2023-05-08T09:27:51;23.50;99.90
22680;DHT22;11507;44.858;10.374;2023-05-08T09:30:17;23.60;99.90
22680;DHT22;11507;44.858;10.374;2023-05-08T09:32:44;23.70;99.90
22680;DHT22;11507;44.858;10.374;2023-05-08T09:35:11;23.50;99.90
22680;DHT22;11507;44.858;10.374;2023-05-08T09:37:41;23.70;99.90
22680;DHT22;11507;44.858;10.374;2023-05-08T09:40:21;23.90;99.90
22680;DHT22;11507;44.858;10.374;2023-05-08T09:42:49;24.30;99.90
22680;DHT22;11507;44.858;10.374;2023-05-08T09:45:29;24.10;99.90
22680;DHT22;11507;44.858;10.374;2023-05-08T09:47:56;24.30;99.90
22680;DHT22;11507;44.858;10.374;2023-05-08T09:50:22;24.30;99.90
22680;DHT22;11507;44.858;10.374;2023-05-08T09:52:49;24.20;99.90
22680;DHT22;11507;44.858;10.374;2023-05-08T09:55:15;24.20;99.90
22680;DHT22;11507;44.858;10.374;2023-05-08T09:58:02;24.30;99.90
22680;DHT22;11507;44.858;10.374;2023-05-08T10:00:28;24.40;99.90
22680;DHT22;11507;44.858;10.374;2023-05-08T10:02:58;24.00;99.90
22680;DHT22;11507;44.858;10.374;2023-05-08T10:05:32;23.70;99.90
22680;DHT22;11507;44.858;10.374;2023-05-08T10:08:36;23.60;99.90
22680;DHT22;11507;44.858;10.374;2023-05-08T10:11:20;23.50;99.90
22680;DHT22;11507;44.858;10.374;2023-05-08T10:13:46;23.70;99.90
22680;DHT22;11507;44.858;10.374;2023-05-08T10:16:19;23.90;99.90
22680;DHT22;11507;44.858;10.374;2023-05-08T10:18:48;24.10;99.90
22680;DHT22;11507;44.858;10.374;2023-05-08T10:21:15;24.30;99.90
22680;DHT22;11507;44.858;10.374;2023-05-08T10:23:41;24.30;99.90
22680;DHT22;11507;44.858;10.374;2023-05-08T10:26:12;24.40;99.90
22680;DHT22;11507;44.858;10.374;2023-05-08T10:28:49;24.50;99.90
22680;DHT22;11507;44.858;10.374;2023-05-08T10:31:21;24.60;99.90
22680;DHT22;11507;44.858;10.374;2023-05-08T10:33:50;24.50;99.90
22680;DHT22;11507;44.858;10.374;2023-05-08T10:36:22;24.40;99.90
22680;DHT22;11507;44.858;10.374;2023-05-08T10:38:49;24.40;99.90
22680;DHT22;11507;44.858;10.374;2023-05-08T10:41:15;24.20;99.90
22680;DHT22;11507;44.858;10.374;2023-05-08T10:43:42;24.30;99.90
22680;DHT22;11507;44.858;10.374;2023-05-08T10:46:28;24.40;99.90
22680;DHT22;11507;44.858;10.374;2023-05-08T10:49:24;24.50;99.90
22680;DHT22;11507;44.858;10.374;2023-05-08T10:52:16;24.50;99.90
22680;DHT22;11507;44.858;10.374;2023-05-08T10:57:19;24.80;99.90
22680;DHT22;11507;44.858;10.374;2023-05-08T10:59:45;24.70;99.90
22680;DHT22;11507;44.858;10.374;2023-05-08T11:02:12;24.90;99.90
22680;DHT22;11507;44.858;10.374;2023-05-08T11:04:38;24.90;99.90
22680;DHT22;11507;44.858;10.374;2023-05-08T11:07:04;25.10;99.90
22680;DHT22;11507;44.858;10.374;2023-05-08T11:09:45;25.20;99.90
22680;DHT22;11507;44.858;10.374;2023-05-08T11:12:27;25.00;99.90
22680;DHT22;11507;44.858;10.374;2023-05-08T11:15:05;25.30;99.90
22680;DHT22;11507;44.858;10.374;2023-05-08T11:17:35;25.20;99.90
22680;DHT22;11507;44.858;10.374;2023-05-08T11:20:04;25.20;99.90
22680;DHT22;11507;44.858;10.374;2023-05-08T11:22:32;25.10;99.90
22680;DHT22;11507;44.858;10.374;2023-05-08T11:25:10;25.20;99.90
22680;DHT22;11507;44.858;10.374;2023-05-08T11:30:37;25.40;99.90
22680;DHT22;11507;44.858;10.374;2023-05-08T11:36:31;25.70;99.90
22680;DHT22;11507;44.858;10.374;2023-05-08T11:38:38;25.90;99.90
22680;DHT22;11507;44.858;10.374;2023-05-08T11:41:23;26.20;99.90
22680;DHT22;11507;44.858;10.374;2023-05-08T11:49:10;26.50;99.90
22680;DHT22;11507;44.858;10.374;2023-05-08T11:51:37;26.50;99.90
22680;DHT22;11507;44.858;10.374;2023-05-08T11:54:04;26.70;99.90
22680;DHT22;11507;44.858;10.374;2023-05-08T11:56:30;27.00;99.90
22680;DHT22;11507;44.858;10.374;2023-05-08T11:59:03;27.30;99.90
22680;DHT22;11507;44.858;10.374;2023-05-08T12:01:30;27.50;98.80
22680;DHT22;11507;44.858;10.374;2023-05-08T12:04:10;27.60;99.30
22680;DHT22;11507;44.858;10.374;2023-05-08T12:06:38;27.80;98.10
22680;DHT22;11507;44.858;10.374;2023-05-08T12:09:16;27.90;97.80
22680;DHT22;11507;44.858;10.374;2023-05-08T12:11:43;28.30;98.70
22680;DHT22;11507;44.858;10.374;2023-05-08T12:14:16;28.70;97.60
22680;DHT22;11507;44.858;10.374;2023-05-08T12:16:42;28.80;97.30
22680;DHT22;11507;44.858;10.374;2023-05-08T12:19:10;28.80;95.70
22680;DHT22;11507;44.858;10.374;2023-05-08T12:21:36;28.80;96.40
22680;DHT22;11507;44.858;10.374;2023-05-08T12:24:20;29.00;95.60
22680;DHT22;11507;44.858;10.374;2023-05-08T12:26:48;29.20;97.30
22680;DHT22;11507;44.858;10.374;2023-05-08T12:29:17;29.80;95.90
22680;DHT22;11507;44.858;10.374;2023-05-08T12:31:43;30.70;95.50
22680;DHT22;11507;44.858;10.374;2023-05-08T12:34:09;30.90;92.80
22680;DHT22;11507;44.858;10.374;2023-05-08T12:36:37;30.90;94.60
22680;DHT22;11507;44.858;10.374;2023-05-08T12:39:13;31.50;93.10
22680;DHT22;11507;44.858;10.374;2023-05-08T12:41:49;32.10;92.00
22680;DHT22;11507;44.858;10.374;2023-05-08T12:44:29;32.60;92.70
22680;DHT22;11507;44.858;10.374;2023-05-08T12:46:56;33.00;90.40
22680;DHT22;11507;44.858;10.374;2023-05-08T12:49:31;33.50;88.90
22680;DHT22;11507;44.858;10.374;2023-05-08T12:52:02;33.70;83.90
22680;DHT22;11507;44.858;10.374;2023-05-08T12:54:37;33.70;86.30
22680;DHT22;11507;44.858;10.374;2023-05-08T12:57:22;34.00;83.70
22680;DHT22;11507;44.858;10.374;2023-05-08T12:59:49;34.40;82.70
22680;DHT22;11507;44.858;10.374;2023-05-08T13:02:19;34.60;80.10
22680;DHT22;11507;44.858;10.374;2023-05-08T13:04:53;34.80;78.60
22680;DHT22;11507;44.858;10.374;2023-05-08T13:07:20;34.70;78.00
22680;DHT22;11507;44.858;10.374;2023-05-08T13:09:57;34.90;76.70
22680;DHT22;11507;44.858;10.374;2023-05-08T13:12:24;34.70;73.90
22680;DHT22;11507;44.858;10.374;2023-05-08T13:14:50;34.40;77.50
22680;DHT22;11507;44.858;10.374;2023-05-08T13:17:18;33.90;73.80
22680;DHT22;11507;44.858;10.374;2023-05-08T13:19:44;33.20;77.40
22680;DHT22;11507;44.858;10.374;2023-05-08T13:22:11;32.90;74.90
22680;DHT22;11507;44.858;10.374;2023-05-08T13:24:36;32.60;79.50
22680;DHT22;11507;44.858;10.374;2023-05-08T13:27:02;32.40;77.10
22680;DHT22;11507;44.858;10.374;2023-05-08T13:29:28;32.20;79.20
22680;DHT22;11507;44.858;10.374;2023-05-08T13:31:57;32.10;79.00
22680;DHT22;11507;44.858;10.374;2023-05-08T13:34:23;31.80;79.20
22680;DHT22;11507;44.858;10.374;2023-05-08T13:36:52;31.90;78.40
22680;DHT22;11507;44.858;10.374;2023-05-08T13:39:18;32.10;78.70
22680;DHT22;11507;44.858;10.374;2023-05-08T13:41:46;32.10;76.80
22680;DHT22;11507;44.858;10.374;2023-05-08T13:44:13;32.50;78.50
22680;DHT22;11507;44.858;10.374;2023-05-08T13:46:39;33.20;77.90
22680;DHT22;11507;44.858;10.374;2023-05-08T13:49:06;33.50;75.50
22680;DHT22;11507;44.858;10.374;2023-05-08T13:51:33;33.40;74.00
22680;DHT22;11507;44.858;10.374;2023-05-08T13:54:02;32.50;73.60
22680;DHT22;11507;44.858;10.374;2023-05-08T13:56:29;31.90;76.30
22680;DHT22;11507;44.858;10.374;2023-05-08T13:58:57;31.40;76.40
22680;DHT22;11507;44.858;10.374;2023-05-08T14:01:23;30.80;76.00
22680;DHT22;11507;44.858;10.374;2023-05-08T14:03:51;30.30;77.40
22680;DHT22;11507;44.858;10.374;2023-05-08T14:06:18;29.80;78.40
22680;DHT22;11507;44.858;10.374;2023-05-08T14:08:45;29.30;80.80
22680;DHT22;11507;44.858;10.374;2023-05-08T14:11:11;28.80;82.90
22680;DHT22;11507;44.858;10.374;2023-05-08T14:13:38;28.30;83.90
22680;DHT22;11507;44.858;10.374;2023-05-08T14:16:06;27.80;85.60
22680;DHT22;11507;44.858;10.374;2023-05-08T14:18:33;27.50;85.80
22680;DHT22;11507;44.858;10.374;2023-05-08T14:21:00;27.40;88.40
22680;DHT22;11507;44.858;10.374;2023-05-08T14:23:28;27.30;87.30
22680;DHT22;11507;44.858;10.374;2023-05-08T14:25:55;27.50;89.10
22680;DHT22;11507;44.858;10.374;2023-05-08T14:28:27;27.60;87.80
22680;DHT22;11507;44.858;10.374;2023-05-08T14:30:53;27.50;87.80
22680;DHT22;11507;44.858;10.374;2023-05-08T14:33:20;27.70;87.30
22680;DHT22;11507;44.858;10.374;2023-05-08T14:35:46;27.70;87.30
22680;DHT22;11507;44.858;10.374;2023-05-08T14:38:13;27.60;88.70
22680;DHT22;11507;44.858;10.374;2023-05-08T14:40:40;27.60;89.00
22680;DHT22;11507;44.858;10.374;2023-05-08T14:43:07;27.60;90.00
22680;DHT22;11507;44.858;10.374;2023-05-08T14:45:34;27.50;90.10
22680;DHT22;11507;44.858;10.374;2023-05-08T14:48:02;27.40;89.00
22680;DHT22;11507;44.858;10.374;2023-05-08T14:50:33;27.10;89.30
22680;DHT22;11507;44.858;10.374;2023-05-08T14:53:01;27.10;90.50
22680;DHT22;11507;44.858;10.374;2023-05-08T14:55:29;27.00;91.00
22680;DHT22;11507;44.858;10.374;2023-05-08T14:58:04;26.90;90.30
22680;DHT22;11507;44.858;10.374;2023-05-08T15:00:33;26.70;90.30
22680;DHT22;11507;44.858;10.374;2023-05-08T15:02:59;26.60;91.00
22680;DHT22;11507;44.858;10.374;2023-05-08T15:05:25;26.70;91.10
22680;DHT22;11507;44.858;10.374;2023-05-08T15:07:51;26.80;91.30
22680;DHT22;11507;44.858;10.374;2023-05-08T15:10:24;26.90;91.70
22680;DHT22;11507;44.858;10.374;2023-05-08T15:12:52;26.90;91.40
22680;DHT22;11507;44.858;10.374;2023-05-08T15:21:27;26.60;91.70
22680;DHT22;11507;44.858;10.374;2023-05-08T15:23:54;26.40;91.80
22680;DHT22;11507;44.858;10.374;2023-05-08T15:26:21;26.30;92.10
22680;DHT22;11507;44.858;10.374;2023-05-08T15:28:49;26.30;92.60
22680;DHT22;11507;44.858;10.374;2023-05-08T15:31:15;26.30;94.20
22680;DHT22;11507;44.858;10.374;2023-05-08T15:33:41;26.20;93.50
22680;DHT22;11507;44.858;10.374;2023-05-08T15:36:11;26.20;93.70
22680;DHT22;11507;44.858;10.374;2023-05-08T15:38:40;26.30;93.70
22680;DHT22;11507;44.858;10.374;2023-05-08T15:41:08;26.30;94.10
22680;DHT22;11507;44.858;10.374;2023-05-08T15:43:38;26.50;94.20
22680;DHT22;11507;44.858;10.374;2023-05-08T15:46:09;26.80;93.50
22680;DHT22;11507;44.858;10.374;2023-05-08T15:48:41;27.10;94.30
22680;DHT22;11507;44.858;10.374;2023-05-08T16:11:14;26.70;91.70
22680;DHT22;11507;44.858;10.374;2023-05-08T16:13:40;26.50;92.70
22680;DHT22;11507;44.858;10.374;2023-05-08T16:16:06;26.40;93.30
22680;DHT22;11507;44.858;10.374;2023-05-08T16:18:32;26.30;94.00
22680;DHT22;11507;44.858;10.374;2023-05-08T16:20:58;26.30;94.30
22680;DHT22;11507;44.858;10.374;2023-05-08T16:23:25;26.00;94.30
22680;DHT22;11507;44.858;10.374;2023-05-08T16:25:52;25.70;94.20
22680;DHT22;11507;44.858;10.374;2023-05-08T16:28:18;25.40;95.20
22680;DHT22;11507;44.858;10.374;2023-05-08T16:30:44;25.20;96.00